createdAt,value
2023-02-14T00:00:01.511Z,74.80
2023-02-14T00:01:01.480Z,31.80
2023-02-14T00:02:01.675Z,162.40
2023-02-14T00:03:01.499Z,191.90
2023-02-14T00:04:01.512Z,145.50
2023-02-14T00:05:01.456Z,41.40
2023-02-14T00:06:01.457Z,65.30
2023-02-14T00:07:01.448Z,91.80
2023-02-14T00:08:01.432Z,31.40
2023-02-14T00:09:01.498Z,30.10
2023-02-14T00:10:01.419Z,29.20
2023-02-14T00:11:01.408Z,34.60
2023-02-14T00:12:01.426Z,33.70
2023-02-14T00:13:01.440Z,31.50
2023-02-14T00:14:01.446Z,30.60
2023-02-14T00:15:01.383Z,31.40
2023-02-14T00:16:01.395Z,34.00
2023-02-14T00:17:01.376Z,34.70
2023-02-14T00:18:01.358Z,35.20
2023-02-14T00:19:01.381Z,34.80
2023-02-14T00:20:01.355Z,31.90
2023-02-14T00:21:01.336Z,31.20
2023-02-14T00:22:01.322Z,34.00
2023-02-14T00:23:01.307Z,30.60
2023-02-14T00:24:02.344Z,30.80
2023-02-14T00:25:01.306Z,29.30
2023-02-14T00:26:01.310Z,30.10
2023-02-14T00:27:01.283Z,31.90
2023-02-14T00:28:01.286Z,33.10
2023-02-14T00:29:01.299Z,31.30
2023-02-14T00:30:01.537Z,33.70
2023-02-14T00:31:01.604Z,32.40
2023-02-14T00:32:01.302Z,32.00
2023-02-14T00:33:01.243Z,35.00
2023-02-14T00:34:01.234Z,32.70
2023-02-14T00:35:01.258Z,25.30
2023-02-14T00:36:01.231Z,26.80
2023-02-14T00:37:01.230Z,24.90
2023-02-14T00:38:01.201Z,25.60
2023-02-14T00:39:01.315Z,27.50
2023-02-14T00:40:01.213Z,35.60
2023-02-14T00:41:01.310Z,107.60
2023-02-14T00:42:01.188Z,75.20
2023-02-14T00:43:01.207Z,44.50
2023-02-14T00:44:01.168Z,38.20
2023-02-14T00:45:01.184Z,123.20
2023-02-14T00:46:01.204Z,32.90
2023-02-14T00:47:01.146Z,35.50
2023-02-14T00:48:01.136Z,32.80
2023-02-14T00:49:01.125Z,36.60
2023-02-14T00:50:01.136Z,34.30
2023-02-14T00:51:01.301Z,32.60
2023-02-14T00:52:01.098Z,39.20
2023-02-14T00:53:01.092Z,39.80
2023-02-14T00:54:01.073Z,44.80
2023-02-14T00:55:01.107Z,39.00
2023-02-14T00:56:01.046Z,38.00
2023-02-14T00:57:02.059Z,37.50
2023-02-14T00:58:01.049Z,35.40
2023-02-14T00:59:01.063Z,36.10
2023-02-14T01:00:01.060Z,35.60
2023-02-14T01:01:01.456Z,38.60
2023-02-14T01:02:01.033Z,37.70
2023-02-14T01:03:01.028Z,38.40
2023-02-14T01:04:01.012Z,38.40
2023-02-14T01:05:01.029Z,37.20
2023-02-14T01:06:00.993Z,57.30
2023-02-14T01:07:01.555Z,63.90
2023-02-14T01:08:00.986Z,64.70
2023-02-14T01:09:01.026Z,48.50
2023-02-14T01:10:01.218Z,42.10
2023-02-14T01:11:01.382Z,41.20
2023-02-14T01:12:00.959Z,40.20
2023-02-14T01:13:00.938Z,40.40
2023-02-14T01:14:00.931Z,37.70
2023-02-14T01:15:00.949Z,35.30
2023-02-14T01:16:00.937Z,35.40
2023-02-14T01:17:00.924Z,31.30
2023-02-14T01:18:00.896Z,33.80
2023-02-14T01:19:00.907Z,31.80
2023-02-14T01:20:01.118Z,30.70
2023-02-14T01:21:01.206Z,31.40
2023-02-14T01:22:00.873Z,31.00
2023-02-14T01:23:00.860Z,33.40
2023-02-14T01:24:00.853Z,34.40
2023-02-14T01:25:00.865Z,35.60
2023-02-14T01:26:00.837Z,39.70
2023-02-14T01:27:00.829Z,38.10
2023-02-14T01:28:00.828Z,36.80
2023-02-14T01:29:00.817Z,38.60
2023-02-14T01:30:00.877Z,33.80
2023-02-14T01:31:01.205Z,36.40
2023-02-14T01:32:00.814Z,36.30
2023-02-14T01:33:00.778Z,35.00
2023-02-14T01:34:00.835Z,34.80
2023-02-14T01:35:00.845Z,35.50
2023-02-14T01:36:00.766Z,37.10
2023-02-14T01:37:00.786Z,35.60
2023-02-14T01:38:00.739Z,36.40
2023-02-14T01:39:00.796Z,37.60
2023-02-14T01:40:01.017Z,36.10
2023-02-14T01:41:01.089Z,35.00
2023-02-14T01:42:00.712Z,41.50
2023-02-14T01:43:00.698Z,37.30
2023-02-14T01:44:02.679Z,35.00
2023-02-14T01:45:00.732Z,39.50
2023-02-14T01:46:00.739Z,35.90
2023-02-14T01:47:00.671Z,37.50
2023-02-14T01:48:00.664Z,34.90
2023-02-14T01:49:00.660Z,33.30
2023-02-14T01:50:00.718Z,33.90
2023-02-14T01:51:01.041Z,36.90
2023-02-14T01:52:03.065Z,37.30
2023-02-14T01:53:00.641Z,38.20
2023-02-14T01:54:00.636Z,36.60
2023-02-14T01:55:00.635Z,36.90
2023-02-14T01:56:00.606Z,37.80
2023-02-14T01:57:00.607Z,41.00
2023-02-14T01:58:00.601Z,37.40
2023-02-14T01:59:00.590Z,40.60
2023-02-14T02:00:00.630Z,39.30
2023-02-14T02:01:01.095Z,40.10
2023-02-14T02:02:00.596Z,39.50
2023-02-14T02:03:00.560Z,39.60
2023-02-14T02:04:00.554Z,35.30
2023-02-14T02:05:00.574Z,31.70
2023-02-14T02:06:00.528Z,34.50
2023-02-14T02:07:00.542Z,36.60
2023-02-14T02:08:00.515Z,34.80
2023-02-14T02:09:00.535Z,37.80
2023-02-14T02:10:00.527Z,34.80
2023-02-14T02:11:00.797Z,48.10
2023-02-14T02:12:00.484Z,67.90
2023-02-14T02:13:00.485Z,60.90
2023-02-14T02:14:00.469Z,51.60
2023-02-14T02:15:00.495Z,53.90
2023-02-14T02:16:00.460Z,46.80
2023-02-14T02:17:00.505Z,48.80
2023-02-14T02:18:00.440Z,40.30
2023-02-14T02:19:00.430Z,49.30
2023-02-14T02:20:00.478Z,53.00
2023-02-14T02:21:00.733Z,56.80
2023-02-14T02:22:00.421Z,47.90
2023-02-14T02:23:00.428Z,53.00
2023-02-14T02:24:00.401Z,52.00
2023-02-14T02:25:00.422Z,75.60
2023-02-14T02:26:00.383Z,65.90
2023-02-14T02:27:00.376Z,93.10
2023-02-14T02:28:00.366Z,85.40
2023-02-14T02:29:00.357Z,89.90
2023-02-14T02:30:00.390Z,86.60
2023-02-14T02:31:00.913Z,152.30
2023-02-14T02:32:00.571Z,125.50
2023-02-14T02:33:00.319Z,156.10
2023-02-14T02:34:00.317Z,124.20
2023-02-14T02:35:00.314Z,206.00
2023-02-14T02:36:00.326Z,167.30
2023-02-14T02:37:00.391Z,188.40
2023-02-14T02:38:00.305Z,189.20
2023-02-14T02:39:00.273Z,165.00
2023-02-14T02:40:00.295Z,105.70
2023-02-14T02:41:00.640Z,117.40
2023-02-14T02:42:00.272Z,113.90
2023-02-14T02:43:00.251Z,102.50
2023-02-14T02:44:01.180Z,125.20
2023-02-14T02:45:00.252Z,131.60
2023-02-14T02:46:00.355Z,132.50
2023-02-14T02:47:00.251Z,104.40
2023-02-14T02:48:00.220Z,113.60
2023-02-14T02:49:00.205Z,152.00
2023-02-14T02:50:00.192Z,119.60
2023-02-14T02:51:00.536Z,166.30
2023-02-14T02:52:00.179Z,143.90
2023-02-14T02:53:00.165Z,203.80
2023-02-14T02:54:00.178Z,113.10
2023-02-14T02:55:00.161Z,249.60
2023-02-14T02:56:00.169Z,170.10
2023-02-14T02:57:00.141Z,198.20
2023-02-14T02:58:00.124Z,114.20
2023-02-14T02:59:00.129Z,197.40
2023-02-14T03:00:00.111Z,91.20
2023-02-14T03:01:00.396Z,117.00
2023-02-14T03:02:00.144Z,81.10
2023-02-14T03:03:00.119Z,131.10
2023-02-14T03:04:00.114Z,169.00
2023-02-14T03:05:00.103Z,169.00
2023-02-14T03:06:00.110Z,116.30
2023-02-14T03:07:00.065Z,187.00
2023-02-14T03:08:00.069Z,141.70
2023-02-14T03:09:00.109Z,127.60
2023-02-14T03:10:00.045Z,144.60
2023-02-14T03:11:00.322Z,140.20
2023-02-14T03:12:00.020Z,118.40
2023-02-14T03:13:00.019Z,146.00
2023-02-14T03:14:00.009Z,208.40
2023-02-14T03:15:00.002Z,150.40
2023-02-14T03:16:00.133Z,109.20
2023-02-14T03:16:59.985Z,107.60
2023-02-14T03:17:59.971Z,84.10
2023-02-14T03:18:59.963Z,90.10
2023-02-14T03:19:59.974Z,82.10
2023-02-14T03:21:00.303Z,109.50
2023-02-14T03:21:59.977Z,96.20
2023-02-14T03:22:59.941Z,130.30
2023-02-14T03:23:59.924Z,118.00
2023-02-14T03:24:59.913Z,105.30
2023-02-14T03:25:59.908Z,85.20
2023-02-14T03:26:59.930Z,101.30
2023-02-14T03:27:59.896Z,187.70
2023-02-14T03:28:59.888Z,161.30
2023-02-14T03:29:59.895Z,138.50
2023-02-14T03:31:00.256Z,135.60
2023-02-14T03:32:00.006Z,148.40
2023-02-14T03:32:59.849Z,155.80
2023-02-14T03:33:59.854Z,191.50
2023-02-14T03:34:59.839Z,186.30
2023-02-14T03:35:59.834Z,207.50
2023-02-14T03:36:59.855Z,181.90
2023-02-14T03:37:59.814Z,201.20
2023-02-14T03:38:59.813Z,227.80
2023-02-14T03:39:59.830Z,86.00
2023-02-14T03:41:00.077Z,264.00
2023-02-14T03:41:59.811Z,289.70
2023-02-14T03:42:59.781Z,118.20
2023-02-14T03:43:59.772Z,60.60
2023-02-14T03:44:59.766Z,67.80
2023-02-14T03:45:59.833Z,52.20
2023-02-14T03:46:59.770Z,51.20
2023-02-14T03:47:59.733Z,62.50
2023-02-14T03:48:59.727Z,76.20
2023-02-14T03:49:59.728Z,53.20
2023-02-14T03:51:00.008Z,55.30
2023-02-14T03:51:59.732Z,49.30
2023-02-14T03:52:59.713Z,116.90
2023-02-14T03:53:59.936Z,84.60
2023-02-14T03:54:59.693Z,59.60
2023-02-14T03:55:59.680Z,54.80
2023-02-14T03:56:59.696Z,52.10
2023-02-14T03:57:59.662Z,61.20
2023-02-14T03:58:59.657Z,218.30
2023-02-14T03:59:59.923Z,220.10
2023-02-14T04:00:59.972Z,232.40
2023-02-14T04:01:59.791Z,179.90
2023-02-14T04:02:59.833Z,351.80
2023-02-14T04:03:59.617Z,151.80
2023-02-14T04:04:59.633Z,145.10
2023-02-14T04:05:59.599Z,96.00
2023-02-14T04:06:59.623Z,123.30
2023-02-14T04:07:59.590Z,91.90
2023-02-14T04:08:59.606Z,79.20
2023-02-14T04:09:59.573Z,72.30
2023-02-14T04:11:00.045Z,58.10
2023-02-14T04:11:59.583Z,124.10
2023-02-14T04:12:59.544Z,271.90
2023-02-14T04:13:59.538Z,139.10
2023-02-14T04:14:59.536Z,176.40
2023-02-14T04:15:59.569Z,171.50
2023-02-14T04:16:59.544Z,143.50
2023-02-14T04:17:59.528Z,120.50
2023-02-14T04:18:59.538Z,101.70
2023-02-14T04:19:59.579Z,260.40
2023-02-14T04:20:59.801Z,161.70
2023-02-14T04:21:59.533Z,271.80
2023-02-14T04:23:00.545Z,150.80
2023-02-14T04:23:59.465Z,105.40
2023-02-14T04:24:59.481Z,153.40
2023-02-14T04:25:59.459Z,126.70
2023-02-14T04:26:59.479Z,84.60
2023-02-14T04:27:59.450Z,131.50
2023-02-14T04:28:59.533Z,196.50
2023-02-14T04:29:59.446Z,70.50
2023-02-14T04:30:59.976Z,118.60
2023-02-14T04:31:59.524Z,115.80
2023-02-14T04:32:59.393Z,89.00
2023-02-14T04:33:59.384Z,74.90
2023-02-14T04:34:59.381Z,55.40
2023-02-14T04:35:59.368Z,57.00
2023-02-14T04:36:59.362Z,72.00
2023-02-14T04:37:59.405Z,56.30
2023-02-14T04:38:59.347Z,74.10
2023-02-14T04:39:59.544Z,69.50
2023-02-14T04:40:59.678Z,69.50
2023-02-14T04:41:59.321Z,66.60
2023-02-14T04:42:59.336Z,89.80
2023-02-14T04:43:59.308Z,76.00
2023-02-14T04:44:59.296Z,237.30
2023-02-14T04:45:59.296Z,156.10
2023-02-14T04:46:59.298Z,323.20
2023-02-14T04:47:59.356Z,200.30
2023-02-14T04:48:59.267Z,177.50
2023-02-14T04:49:59.266Z,103.50
2023-02-14T04:50:59.607Z,168.60
2023-02-14T04:51:59.252Z,303.50
2023-02-14T04:52:59.271Z,209.40
2023-02-14T04:53:59.228Z,162.60
2023-02-14T04:54:59.222Z,151.90
2023-02-14T04:55:59.210Z,168.20
2023-02-14T04:56:59.205Z,213.30
2023-02-14T04:57:59.226Z,234.80
2023-02-14T04:58:59.217Z,255.30
2023-02-14T04:59:59.191Z,303.40
2023-02-14T05:00:59.530Z,217.10
2023-02-14T05:01:59.238Z,205.20
2023-02-14T05:02:59.193Z,209.40
2023-02-14T05:03:59.180Z,162.60
2023-02-14T05:04:59.133Z,134.00
2023-02-14T05:06:00.141Z,136.90
2023-02-14T05:06:59.130Z,140.40
2023-02-14T05:07:59.318Z,175.80
2023-02-14T05:08:59.116Z,160.60
2023-02-14T05:09:59.110Z,193.20
2023-02-14T05:10:59.548Z,179.90
2023-02-14T05:11:59.106Z,165.90
2023-02-14T05:12:59.135Z,116.20
2023-02-14T05:14:31.599Z,154.30
2023-02-14T05:14:59.063Z,147.90
2023-02-14T05:15:59.113Z,90.60
2023-02-14T05:16:59.058Z,83.80
2023-02-14T05:17:59.070Z,91.70
2023-02-14T05:18:59.043Z,137.40
2023-02-14T05:19:59.036Z,137.80
2023-02-14T05:20:59.311Z,180.80
2023-02-14T05:21:59.023Z,89.10
2023-02-14T05:22:59.049Z,122.20
2023-02-14T05:23:59.000Z,79.20
2023-02-14T05:24:58.995Z,83.50
2023-02-14T05:25:58.986Z,76.40
2023-02-14T05:26:58.979Z,92.30
2023-02-14T05:27:58.988Z,97.50
2023-02-14T05:28:58.958Z,118.50
2023-02-14T05:29:58.994Z,75.60
2023-02-14T05:30:59.366Z,97.00
2023-02-14T05:31:59.983Z,76.60
2023-02-14T05:32:58.923Z,81.50
2023-02-14T05:33:58.971Z,71.70
2023-02-14T05:35:00.964Z,72.20
2023-02-14T05:35:59.913Z,75.20
2023-02-14T05:36:58.884Z,112.70
2023-02-14T05:37:59.885Z,104.50
2023-02-14T05:38:58.909Z,75.90
2023-02-14T05:39:58.871Z,124.80
2023-02-14T05:40:59.240Z,155.00
2023-02-14T05:41:59.441Z,96.40
2023-02-14T05:42:59.845Z,245.20
2023-02-14T05:43:58.859Z,85.40
2023-02-14T05:44:58.836Z,81.30
2023-02-14T05:45:58.896Z,56.50
2023-02-14T05:46:58.820Z,113.90
2023-02-14T05:47:58.808Z,89.90
2023-02-14T05:48:58.823Z,97.70
2023-02-14T05:49:58.796Z,89.90
2023-02-14T05:50:59.049Z,80.80
2023-02-14T05:51:58.780Z,43.20
2023-02-14T05:52:58.780Z,82.20
2023-02-14T05:53:59.057Z,58.40
2023-02-14T05:54:58.754Z,79.20
2023-02-14T05:55:58.752Z,91.00
2023-02-14T05:56:58.743Z,209.00
2023-02-14T05:57:58.748Z,176.60
2023-02-14T05:58:58.749Z,61.50
2023-02-14T05:59:58.716Z,62.50
2023-02-14T06:00:59.044Z,92.60
2023-02-14T06:01:58.720Z,200.00
2023-02-14T06:02:58.697Z,149.00
2023-02-14T06:03:58.717Z,109.10
2023-02-14T06:04:58.696Z,133.20
2023-02-14T06:05:58.669Z,93.40
2023-02-14T06:06:58.672Z,163.90
2023-02-14T06:07:59.609Z,262.10
2023-02-14T06:08:58.675Z,144.10
2023-02-14T06:09:58.648Z,157.10
2023-02-14T06:10:59.039Z,176.00
2023-02-14T06:11:58.681Z,327.90
2023-02-14T06:12:58.629Z,252.00
2023-02-14T06:13:58.713Z,283.20
2023-02-14T06:14:58.610Z,147.10
2023-02-14T06:15:58.604Z,103.10
2023-02-14T06:16:59.337Z,82.80
2023-02-14T06:17:58.581Z,320.80
2023-02-14T06:18:58.615Z,85.50
2023-02-14T06:19:58.568Z,74.30
2023-02-14T06:20:58.926Z,156.20
2023-02-14T06:21:58.565Z,284.50
2023-02-14T06:22:58.557Z,108.90
2023-02-14T06:23:58.538Z,127.90
2023-02-14T06:24:58.563Z,134.80
2023-02-14T06:25:58.528Z,117.00
2023-02-14T06:26:58.518Z,79.20
2023-02-14T06:27:58.529Z,87.50
2023-02-14T06:28:58.513Z,108.60
2023-02-14T06:29:58.558Z,97.50
2023-02-14T06:30:58.949Z,142.30
2023-02-14T06:31:58.613Z,174.10
2023-02-14T06:32:58.496Z,203.70
2023-02-14T06:33:58.466Z,209.40
2023-02-14T06:34:58.482Z,120.70
2023-02-14T06:35:58.454Z,150.70
2023-02-14T06:36:58.442Z,115.40
2023-02-14T06:37:58.435Z,96.50
2023-02-14T06:38:58.435Z,115.00
2023-02-14T06:39:58.780Z,120.20
2023-02-14T06:41:00.576Z,105.80
2023-02-14T06:41:59.406Z,108.30
2023-02-14T06:42:58.418Z,111.80
2023-02-14T06:43:58.546Z,105.00
2023-02-14T06:44:58.412Z,97.20
2023-02-14T06:45:58.398Z,122.10
2023-02-14T06:46:58.363Z,86.90
2023-02-14T06:47:58.361Z,122.70
2023-02-14T06:48:58.361Z,113.40
2023-02-14T06:49:58.375Z,106.10
2023-02-14T06:50:58.688Z,92.10
2023-02-14T06:51:58.330Z,88.80
2023-02-14T06:52:58.331Z,141.60
2023-02-14T06:53:58.335Z,135.30
2023-02-14T06:54:58.334Z,208.10
2023-02-14T06:55:58.323Z,87.90
2023-02-14T06:56:58.286Z,82.70
2023-02-14T06:57:58.304Z,91.10
2023-02-14T06:58:58.336Z,112.20
2023-02-14T06:59:58.326Z,117.10
2023-02-14T07:00:58.605Z,69.80
2023-02-14T07:01:58.267Z,96.30
2023-02-14T07:02:58.294Z,73.30
2023-02-14T07:03:58.277Z,76.80
2023-02-14T07:04:58.259Z,81.10
2023-02-14T07:05:58.256Z,101.40
2023-02-14T07:06:58.218Z,112.90
2023-02-14T07:07:59.028Z,89.00
2023-02-14T07:08:58.195Z,127.10
2023-02-14T07:09:58.241Z,193.90
2023-02-14T07:10:58.849Z,158.60
2023-02-14T07:11:59.273Z,137.80
2023-02-14T07:12:58.175Z,88.20
2023-02-14T07:13:58.155Z,83.20
2023-02-14T07:14:58.205Z,87.20
2023-02-14T07:15:58.192Z,86.40
2023-02-14T07:16:58.134Z,116.00
2023-02-14T07:17:58.127Z,83.70
2023-02-14T07:18:58.139Z,89.30
2023-02-14T07:19:58.144Z,75.50
2023-02-14T07:20:58.664Z,62.60
2023-02-14T07:21:58.112Z,58.90
2023-02-14T07:22:58.094Z,83.40
2023-02-14T07:23:58.086Z,79.40
2023-02-14T07:24:58.103Z,63.90
2023-02-14T07:25:58.074Z,58.70
2023-02-14T07:26:58.054Z,66.10
2023-02-14T07:27:58.049Z,63.20
2023-02-14T07:28:58.046Z,59.50
2023-02-14T07:29:58.086Z,57.90
2023-02-14T07:30:58.477Z,83.20
2023-02-14T07:31:58.333Z,70.90
2023-02-14T07:32:58.014Z,111.00
2023-02-14T07:33:58.013Z,68.40
2023-02-14T07:34:58.029Z,66.80
2023-02-14T07:35:57.999Z,98.80
2023-02-14T07:36:57.985Z,91.10
2023-02-14T07:37:58.000Z,63.00
2023-02-14T07:38:57.971Z,66.60
2023-02-14T07:39:57.955Z,82.10
2023-02-14T07:40:58.261Z,84.60
2023-02-14T07:41:57.948Z,90.70
2023-02-14T07:42:57.943Z,140.00
2023-02-14T07:43:57.940Z,66.80
2023-02-14T07:44:57.924Z,82.40
2023-02-14T07:45:58.013Z,86.20
2023-02-14T07:46:57.929Z,74.70
2023-02-14T07:47:57.908Z,89.30
2023-02-14T07:48:57.918Z,118.30
2023-02-14T07:49:57.888Z,100.90
2023-02-14T07:50:58.463Z,94.60
2023-02-14T07:51:57.894Z,109.00
2023-02-14T07:52:57.860Z,83.70
2023-02-14T07:53:57.899Z,65.50
2023-02-14T07:54:57.859Z,74.50
2023-02-14T07:55:57.886Z,112.80
2023-02-14T07:56:57.841Z,131.60
2023-02-14T07:57:57.831Z,83.70
2023-02-14T07:58:57.821Z,113.70
2023-02-14T07:59:57.807Z,56.40
2023-02-14T08:00:58.288Z,62.70
2023-02-14T08:01:57.843Z,66.00
2023-02-14T08:02:57.784Z,61.60
2023-02-14T08:03:57.810Z,60.30
2023-02-14T08:04:57.807Z,74.60
2023-02-14T08:05:57.806Z,90.80
2023-02-14T08:06:57.752Z,187.10
2023-02-14T08:07:57.764Z,116.50
2023-02-14T08:08:57.743Z,128.60
2023-02-14T08:09:57.754Z,71.20
2023-02-14T08:10:58.030Z,145.90
2023-02-14T08:11:57.726Z,104.30
2023-02-14T08:12:57.716Z,114.50
2023-02-14T08:13:57.707Z,135.70
2023-02-14T08:14:57.692Z,230.70
2023-02-14T08:15:57.747Z,106.60
2023-02-14T08:16:57.676Z,139.00
2023-02-14T08:17:57.673Z,84.30
2023-02-14T08:18:57.653Z,87.50
2023-02-14T08:19:57.670Z,98.20
2023-02-14T08:20:57.949Z,75.80
2023-02-14T08:21:57.631Z,97.60
2023-02-14T08:22:57.638Z,65.40
2023-02-14T08:23:57.640Z,86.30
2023-02-14T08:24:57.615Z,85.60
2023-02-14T08:25:57.631Z,84.00
2023-02-14T08:26:57.600Z,100.40
2023-02-14T08:27:57.609Z,80.60
2023-02-14T08:28:57.587Z,92.00
2023-02-14T08:29:57.596Z,101.30
2023-02-14T08:30:58.763Z,74.50
2023-02-14T08:31:57.788Z,75.30
2023-02-14T08:32:57.622Z,86.80
2023-02-14T08:33:57.544Z,103.00
2023-02-14T08:34:57.540Z,53.40
2023-02-14T08:35:57.555Z,87.70
2023-02-14T08:36:57.520Z,91.50
2023-02-14T08:37:58.542Z,92.40
2023-02-14T08:38:57.502Z,77.30
2023-02-14T08:39:57.609Z,98.90
2023-02-14T08:40:57.748Z,60.50
2023-02-14T08:41:57.481Z,89.50
2023-02-14T08:42:57.498Z,70.10
2023-02-14T08:43:57.463Z,92.90
2023-02-14T08:44:57.461Z,87.50
2023-02-14T08:45:57.642Z,68.30
2023-02-14T08:46:57.523Z,107.20
2023-02-14T08:47:57.429Z,70.90
2023-02-14T08:48:57.426Z,66.60
2023-02-14T08:49:57.438Z,102.50
2023-02-14T08:50:57.748Z,50.90
2023-02-14T08:51:57.475Z,59.30
2023-02-14T08:52:57.429Z,74.90
2023-02-14T08:53:57.405Z,59.10
2023-02-14T08:54:57.392Z,58.90
2023-02-14T08:55:57.492Z,60.90
2023-02-14T08:56:57.373Z,65.10
2023-02-14T08:57:57.368Z,76.30
2023-02-14T08:58:57.350Z,57.10
2023-02-14T08:59:57.338Z,59.00
2023-02-14T09:00:57.462Z,64.10
2023-02-14T09:01:57.357Z,58.90
2023-02-14T09:02:58.254Z,51.20
2023-02-14T09:03:57.345Z,60.90
2023-02-14T09:04:57.306Z,64.90
2023-02-14T09:05:57.297Z,70.60
2023-02-14T09:06:57.326Z,56.50
2023-02-14T09:07:57.488Z,58.80
2023-02-14T09:08:57.322Z,52.40
2023-02-14T09:09:57.260Z,63.10
2023-02-14T09:10:57.252Z,63.90
2023-02-14T09:11:57.278Z,65.80
2023-02-14T09:12:57.243Z,62.70
2023-02-14T09:13:57.246Z,57.50
2023-02-14T09:14:57.234Z,53.30
2023-02-14T09:15:57.269Z,51.70
2023-02-14T09:16:57.287Z,47.60
2023-02-14T09:17:57.216Z,55.90
2023-02-14T09:18:57.243Z,51.60
2023-02-14T09:19:57.188Z,72.60
2023-02-14T09:20:57.411Z,55.50
2023-02-14T09:21:57.241Z,57.80
2023-02-14T09:22:57.165Z,65.20
2023-02-14T09:23:57.154Z,49.70
2023-02-14T09:24:57.155Z,44.00
2023-02-14T09:25:57.756Z,66.70
2023-02-14T09:26:57.156Z,59.00
2023-02-14T09:27:57.144Z,51.60
2023-02-14T09:28:57.121Z,67.80
2023-02-14T09:29:57.165Z,61.80
2023-02-14T09:30:57.281Z,41.00
2023-02-14T09:31:57.242Z,45.30
2023-02-14T09:32:57.110Z,61.00
2023-02-14T09:33:57.094Z,53.80
2023-02-14T09:34:57.084Z,64.50
2023-02-14T09:35:57.063Z,58.40
2023-02-14T09:36:57.096Z,48.80
2023-02-14T09:37:57.055Z,53.90
2023-02-14T09:38:57.052Z,59.40
2023-02-14T09:39:57.041Z,52.10
2023-02-14T09:40:57.083Z,52.70
2023-02-14T09:41:57.060Z,82.70
2023-02-14T09:42:57.012Z,47.60
2023-02-14T09:43:57.062Z,61.30
2023-02-14T09:44:57.104Z,57.50
2023-02-14T09:45:57.100Z,57.10
2023-02-14T09:46:57.050Z,54.20
2023-02-14T09:47:56.978Z,58.50
2023-02-14T09:48:57.003Z,67.10
2023-02-14T09:49:56.989Z,44.80
2023-02-14T09:50:57.301Z,56.90
2023-02-14T09:51:57.972Z,49.10
2023-02-14T09:52:56.947Z,46.90
2023-02-14T09:53:57.637Z,50.40
2023-02-14T09:54:56.940Z,52.90
2023-02-14T09:55:56.926Z,48.90
2023-02-14T09:56:56.943Z,55.90
2023-02-14T09:57:56.907Z,46.70
2023-02-14T09:58:56.893Z,46.60
2023-02-14T09:59:56.888Z,44.00
2023-02-14T10:00:57.083Z,44.00
2023-02-14T10:01:56.975Z,41.90
2023-02-14T10:02:56.898Z,44.20
2023-02-14T10:03:56.864Z,46.20
2023-02-14T10:04:56.851Z,41.40
2023-02-14T10:05:56.839Z,47.00
2023-02-14T10:06:56.909Z,46.90
2023-02-14T10:07:56.827Z,44.30
2023-02-14T10:08:56.817Z,46.30
2023-02-14T10:09:56.835Z,43.30
2023-02-14T10:10:56.814Z,49.20
2023-02-14T10:11:56.830Z,46.10
2023-02-14T10:12:56.799Z,54.90
2023-02-14T10:13:56.786Z,53.20
2023-02-14T10:14:56.784Z,46.00
2023-02-14T10:15:56.768Z,40.00
2023-02-14T10:16:56.822Z,38.80
2023-02-14T10:17:56.826Z,48.80
2023-02-14T10:18:56.756Z,40.90
2023-02-14T10:19:56.749Z,38.70
2023-02-14T10:20:56.741Z,42.30
2023-02-14T10:21:56.737Z,39.50
2023-02-14T10:22:56.761Z,39.20
2023-02-14T10:23:56.723Z,47.10
2023-02-14T10:24:56.743Z,47.60
2023-02-14T10:25:56.731Z,43.80
2023-02-14T10:26:56.692Z,53.90
2023-02-14T10:27:56.712Z,42.80
2023-02-14T10:28:56.687Z,44.00
2023-02-14T10:29:56.710Z,40.50
2023-02-14T10:30:56.747Z,40.80
2023-02-14T10:31:56.721Z,43.50
2023-02-14T10:32:56.678Z,40.80
2023-02-14T10:33:57.885Z,42.40
2023-02-14T10:34:57.636Z,39.00
2023-02-14T10:35:56.627Z,53.10
2023-02-14T10:36:56.631Z,40.50
2023-02-14T10:37:56.640Z,43.40
2023-02-14T10:38:56.633Z,48.50
2023-02-14T10:39:56.609Z,46.50
2023-02-14T10:40:56.592Z,45.00
2023-02-14T10:41:56.607Z,45.40
2023-02-14T10:42:56.609Z,40.30
2023-02-14T10:43:56.581Z,41.20
2023-02-14T10:44:56.577Z,44.30
2023-02-14T10:45:56.600Z,38.60
2023-02-14T10:46:56.549Z,39.80
2023-02-14T10:47:56.567Z,40.20
2023-02-14T10:48:56.544Z,38.90
2023-02-14T10:49:56.521Z,40.10
2023-02-14T10:50:56.514Z,42.70
2023-02-14T10:51:56.527Z,42.60
2023-02-14T10:52:56.532Z,41.30
2023-02-14T10:53:56.483Z,38.60
2023-02-14T10:54:56.488Z,38.00
2023-02-14T10:55:56.482Z,38.60
2023-02-14T10:56:58.401Z,43.10
2023-02-14T10:57:57.496Z,45.80
2023-02-14T10:58:56.467Z,38.10
2023-02-14T10:59:56.469Z,37.60
2023-02-14T11:00:56.462Z,35.20
2023-02-14T11:01:56.435Z,39.00
2023-02-14T11:02:56.620Z,38.20
2023-02-14T11:03:56.499Z,69.90
2023-02-14T11:04:56.398Z,48.30
2023-02-14T11:05:56.414Z,35.60
2023-02-14T11:06:56.388Z,36.50
2023-02-14T11:07:56.406Z,35.40
2023-02-14T11:08:57.453Z,36.50
2023-02-14T11:09:57.375Z,41.30
2023-02-14T11:10:56.360Z,38.90
2023-02-14T11:11:56.359Z,37.30
2023-02-14T11:12:56.383Z,38.10
2023-02-14T11:14:29.204Z,38.30
2023-02-14T11:14:56.326Z,36.80
2023-02-14T11:15:56.317Z,36.40
2023-02-14T11:16:56.345Z,35.20
2023-02-14T11:17:56.339Z,35.10
2023-02-14T11:18:56.331Z,34.10
2023-02-14T11:19:56.292Z,36.60
2023-02-14T11:20:56.331Z,34.90
2023-02-14T11:21:56.292Z,37.10
2023-02-14T11:22:56.345Z,35.50
2023-02-14T11:23:56.290Z,36.30
2023-02-14T11:24:56.281Z,43.20
2023-02-14T11:25:56.388Z,43.80
2023-02-14T11:26:56.246Z,35.80
2023-02-14T11:27:56.603Z,40.90
2023-02-14T11:28:56.236Z,41.00
2023-02-14T11:29:56.253Z,43.60
2023-02-14T11:30:56.333Z,45.90
2023-02-14T11:31:56.263Z,45.90
2023-02-14T11:32:56.416Z,37.30
2023-02-14T11:33:56.216Z,33.80
2023-02-14T11:34:56.184Z,35.40
2023-02-14T11:35:56.177Z,31.50
2023-02-14T11:36:56.200Z,32.90
2023-02-14T11:37:56.205Z,33.20
2023-02-14T11:38:56.155Z,31.70
2023-02-14T11:39:56.689Z,31.00
2023-02-14T11:40:56.136Z,31.10
2023-02-14T11:41:57.131Z,31.40
2023-02-14T11:43:12.881Z,31.50
2023-02-14T11:43:58.129Z,30.40
2023-02-14T11:44:56.118Z,31.00
2023-02-14T11:45:56.133Z,29.20
2023-02-14T11:46:56.101Z,30.70
2023-02-14T11:47:56.123Z,32.50
2023-02-14T11:48:56.132Z,32.20
2023-02-14T11:49:56.074Z,34.60
2023-02-14T11:50:56.139Z,32.40
2023-02-14T11:51:56.067Z,30.60
2023-02-14T11:52:56.045Z,32.10
2023-02-14T11:53:56.063Z,35.90
2023-02-14T11:54:56.025Z,35.90
2023-02-14T11:55:56.013Z,35.50
2023-02-14T11:56:56.006Z,34.40
2023-02-14T11:57:56.048Z,32.90
2023-02-14T11:58:56.025Z,30.80
2023-02-14T11:59:55.997Z,33.10
2023-02-14T12:00:56.022Z,31.40
2023-02-14T12:01:56.006Z,31.40
2023-02-14T12:02:55.976Z,37.10
2023-02-14T12:03:56.030Z,30.90
2023-02-14T12:04:55.954Z,31.30
2023-02-14T12:05:55.940Z,30.70
2023-02-14T12:06:55.944Z,31.20
2023-02-14T12:07:55.930Z,30.00
2023-02-14T12:08:56.292Z,32.40
2023-02-14T12:09:55.916Z,29.40
2023-02-14T12:10:55.911Z,30.10
2023-02-14T12:11:56.915Z,32.50
2023-02-14T12:12:55.890Z,32.80
2023-02-14T12:13:55.919Z,40.70
2023-02-14T12:14:55.993Z,39.60
2023-02-14T12:15:55.939Z,49.70
2023-02-14T12:16:55.862Z,39.20
2023-02-14T12:17:55.853Z,40.20
2023-02-14T12:18:55.885Z,29.40
2023-02-14T12:19:55.842Z,28.90
2023-02-14T12:20:55.861Z,35.60
2023-02-14T12:21:55.820Z,32.30
2023-02-14T12:22:55.817Z,29.00
2023-02-14T12:23:55.956Z,29.50
2023-02-14T12:24:55.797Z,35.50
2023-02-14T12:25:55.822Z,36.50
2023-02-14T12:26:56.898Z,31.70
2023-02-14T12:27:55.789Z,31.60
2023-02-14T12:28:55.811Z,45.20
2023-02-14T12:29:55.797Z,84.80
2023-02-14T12:30:55.826Z,52.50
2023-02-14T12:31:55.810Z,51.00
2023-02-14T12:32:55.739Z,40.90
2023-02-14T12:33:55.761Z,38.20
2023-02-14T12:34:55.710Z,36.30
2023-02-14T12:35:55.712Z,35.90
2023-02-14T12:36:55.701Z,32.40
2023-02-14T12:38:03.944Z,32.10
2023-02-14T12:38:57.707Z,27.20
2023-02-14T12:39:55.685Z,28.10
2023-02-14T12:40:55.663Z,31.30
2023-02-14T12:41:55.658Z,31.00
2023-02-14T12:42:55.657Z,29.40
2023-02-14T12:43:55.652Z,27.90
2023-02-14T12:44:55.689Z,29.10